St. George (Bloomington Hills), Utah Weather observations

Data are for observation ending at time listed.
 Day   Time    Ave.   Ave.  Ave.  Vector   Max.   Stn.    Total    Solar   Ave.  
  of    of     Air    Rel.  Wind   Wind    Wind   Baro.  Precip.   Rad.    Soil  
Year   Day     Temp.  Hum.  Speed  Dir.    Gust   Pres.                    Temp. 
2021   (MST)    F      %     mph   deg.    mph     mb.     in.     W/m2     F   
------------------------------------------------------------------------------
 206   11:20   91.3    35    2.9   151      5.8   921.0    0.00     932    88.6
 206   11:30   92.2    34    1.5   172      5.0   920.9    0.00     897    88.7
 206   11:40   93.5    33    0.5   187      3.5   920.7    0.00     892    88.8
 206   11:50   92.0    34    1.9   359      5.8   920.6    0.00     893    88.9
 206   12:00   91.1    35    2.3   338      5.7   920.5    0.00     901    89.0
 206   12:10   90.8    34    3.0   257      6.6   920.4    0.00     878    89.1
 206   12:20   90.9    33    2.9   263      5.7   920.2    0.00     916    89.2
 206   12:30   92.0    32    2.1   304      7.1   920.0    0.00     906    89.3
 206   12:40   93.5    31    2.5   298      8.0   919.8    0.00     897    89.5
 206   12:50   92.8    31    3.1   258      7.8   919.6    0.00     912    89.7
 206   13:00   92.9    30    2.2   251      6.6   919.5    0.00     911    89.8
 206   13:10   94.0    30    1.8   305      7.5   919.4    0.00     907    90.0
 206   13:20   93.9    29    4.0   285      8.4   919.2    0.00     899    90.2
 206   13:30   94.6    28    3.7   298     10.3   919.0    0.00     898    90.4
 206   13:40   95.1    28    2.4   342      6.9   918.8    0.00     890    90.6
 206   13:50   94.9    28    4.0   333     11.9   918.5    0.00     882    90.8
 206   14:00   95.8    27    3.3   298      9.2   918.3    0.00     906    90.9
 206   14:10   96.2    26    3.2   301      7.5   918.1    0.00     870    91.1
 206   14:20   96.2    26    2.2   282      7.6   917.9    0.00     872    91.3
 206   14:30   98.0    25    1.6   282      5.8   917.7    0.00     841    91.5
 206   14:40   97.2    24    3.4   269      8.6   917.5    0.00     805    91.7
 206   14:50   97.3    25    3.1   308      8.9   917.3    0.00     750    92.0
 206   15:00   97.9    24    2.4   257      7.9   917.1    0.00     763    92.2
 206   15:10   98.8    23    1.5   291      7.2   917.0    0.00     763    92.4
 206   15:20   98.1    24    3.0   307      8.7   916.7    0.00     400    92.6
 206   15:30   96.3    25    2.4   316      6.5   916.6    0.00     155    92.8
 206   15:40   96.1    24    3.1   300      7.2   916.5    0.00     150    93.1
 206   15:50   96.2    24    3.2   294      6.7   916.5    0.00     131    93.3
 206   16:00   96.1    24    1.8   321      5.2   916.5    0.00     130    93.6
 206   16:10   96.2    24    1.6   325      4.4   916.5    0.00     136    93.8
 206   16:20   96.0    24    2.3   314      5.6   916.3    0.00     149    93.9
 206   16:30   96.4    24    2.5   283      5.3   916.1    0.00     328    94.1
 206   16:40   99.0    22    1.1   323      4.9   916.1    0.00     425    94.2
 206   16:50   98.6    23    3.1   299      8.8   916.0    0.00     378    94.2
 206   17:00   96.9    25    4.0   352      9.3   916.3    0.00     131    94.4
 206   17:10   93.3    28   12.8    34     30.2   917.1    0.00      29    94.6
 206   17:20   81.3    49   18.3    38     34.2   918.1    0.06      11    94.9
 206   17:30   73.7    70    6.3    71     21.3   918.2    0.05       7    95.3
 206   17:40   73.1    73    3.9    66     10.7   917.9    0.02       3    95.4
 206   17:50   74.4    72    3.6    38      6.7   917.5    0.01       3    95.4
 206   18:00   75.2    74    1.9   357      3.5   917.5    0.00       3    95.4
 206   18:10   75.7    75    2.6   168      5.5   917.7    0.00       4    95.3
 206   18:20   76.5    69    1.9   215      6.8   917.5    0.00       8    95.3
 206   18:30   77.3    71    1.7   200      3.5   917.1    0.00      12    95.2
 206   18:40   76.9    69    1.4   203      5.1   916.7    0.00      16    95.2
 206   18:50   77.9    62    2.0   223      5.0   916.3    0.00      18    95.1
 206   19:00   78.5    66    1.9   236      5.0   916.5    0.00      16    94.9
 206   19:10   77.8    68    1.8   327      4.5   916.7    0.00      16    94.8
 206   19:20   77.7    67    0.8   289      3.8   916.8    0.00      11    94.7
 206   19:30   77.3    67    1.2    87      2.8   916.9    0.00       8    94.5
 206   19:40   77.6    69    0.5   198      2.8   916.8    0.00       3    94.4
 206   19:50   78.0    65    1.9     2      3.8   917.0    0.00       3    94.2
 206   20:00   78.3    64    1.6   259      2.9   917.4    0.00       1    94.1
 206   20:10   78.4    61    0.7   238      2.4   917.6    0.00       0    94.0
 206   20:20   79.1    56    1.6   266      5.9   917.7    0.00       0    93.8
 206   20:30   79.5    56    1.8   231      3.7   917.6    0.00       0    93.7
 206   20:40   79.8    54    2.1   260      5.4   917.6    0.00       0    93.5
 206   20:50   79.8    56    0.3   234      2.3   917.7    0.00       0    93.4
 206   21:00   79.5    57    1.0   230      1.8   917.8    0.00       0    93.3
 206   21:10   79.3    58    0.1   194      1.0   918.0    0.00       0    93.1
 206   21:20   79.2    59    2.2   170      5.4   918.4    0.00       0    93.0
 206   21:30   79.0    61    2.2   169      5.9   918.8    0.00       0    92.9
 206   21:40   79.0    60    1.5   174      3.1   919.1    0.00       0    92.7
 206   21:50   78.9    59    0.8   169      2.0   919.1    0.00       0    92.6
 206   22:00   79.1    59    0.7   320      2.5   919.2    0.00       0    92.5
 206   22:10   79.0    61    0.4    83      1.8   919.3    0.00       0    92.4
 206   22:20   78.5    64    1.0   125      3.6   919.3    0.00       0    92.2
 206   22:30   78.1    62    0.0   180      0.4   919.3    0.00       0    92.1
 206   22:40   78.2    61    0.6   279      1.8   919.3    0.00       0    92.0
 206   22:50   78.9    60    1.0   328      2.9   919.3    0.00       0    91.9
 206   23:00   78.7    60    0.2   114      0.9   919.3    0.00       0    91.8
 206   23:10   78.5    59    0.8   176      3.7   919.3    0.00       0    91.7
 206   23:20   78.8    55    0.7   167      3.1   919.4    0.00       0    91.5
 206   23:30   79.0    55    2.1   172      4.4   919.3    0.00       0    91.4
 206   23:40   79.2    54    1.2   169      4.8   919.3    0.00       0    91.3
 206   23:50   79.2    54    0.7   226      3.1   919.3    0.00       0    91.2
 207    0:00   78.9    60    1.1   334      3.1   919.3    0.00       0    91.1
 207    0:10   78.4    60    0.7    25      2.4   919.3    0.00       0    91.0
 207    0:20   78.5    60    0.4   246      1.6   919.5    0.00       0    90.9
 207    0:30   78.2    58    1.3   238      3.4   919.5    0.00       0    90.8
 207    0:40   77.8    59    1.0   240      3.1   919.6    0.00       0    90.6
 207    0:50   77.4    61    2.2   241      4.1   919.6    0.00       0    90.6
 207    1:00   77.5    62    1.3   241      2.9   919.7    0.00       0    90.5
 207    1:10   77.5    62    0.8   233      2.6   919.8    0.00       0    90.4
 207    1:20   77.5    63    0.4   199      3.6   919.8    0.00       0    90.3
 207    1:30   77.6    64    1.4   229      5.4   919.8    0.00       0    90.2
 207    1:40   77.4    64    1.1   203      3.4   920.0    0.00       0    90.1
 207    1:50   77.1    64    1.6   222      4.7   919.9    0.00       0    90.0
 207    2:00   76.7    65    1.5   220      6.6   920.0    0.00       0    89.9
 207    2:10   76.7    65    1.9   233      4.8   920.2    0.00       0    89.8
 207    2:20   76.5    66    2.9   234      6.0   920.3    0.00       0    89.7
 207    2:30   76.5    66    2.2   234      5.4   920.3    0.00       0    89.6
 207    2:40   76.4    66    2.6   236      6.1   920.3    0.00       0    89.5
 207    2:50   76.1    67    0.8   228      3.5   920.3    0.00       0    89.4
 207    3:00   76.0    67    1.2   239      3.1   920.4    0.00       0    89.3
 207    3:10   76.0    67    1.4   239      3.9   920.5    0.00       0    89.3
 207    3:20   75.9    68    0.8   236      3.3   920.6    0.00       0    89.2
 207    3:30   75.8    68    1.1   242      3.3   920.7    0.00       0    89.1
 207    3:40   75.9    67    1.6   244      3.3   920.8    0.00       0    89.0
 207    3:50   76.0    67    1.1   269      2.6   920.9    0.00       0    88.9
 207    4:00   76.0    68    0.5   231      2.5   921.0    0.00       0    88.8
 207    4:10   76.0    67    1.1   275      2.4   921.0    0.00       0    88.7
 207    4:20   75.9    68    0.2   222      1.2   921.1    0.00       0    88.6
 207    4:30   75.8    67    1.0   246      2.1   921.1    0.00       0    88.6
 207    4:40   75.8    68    1.1   233      2.6   921.1    0.00       0    88.5
 207    4:50   75.9    68    0.9   233      2.3   921.1    0.00       0    88.4
 207    5:00   75.8    67    0.9   231      2.3   921.1    0.00       0    88.3
 207    5:10   76.0    67    1.2   248      2.6   921.1    0.00       0    88.2
 207    5:20   75.7    68    0.6   203      1.7   921.1    0.00       0    88.1
 207    5:30   75.4    68    0.7   194      1.8   921.2    0.00       1    88.1
 207    5:40   75.7    67    0.9   226      2.6   921.2    0.00       3    88.0
 207    5:50   75.9    67    0.7   224      2.3   921.3    0.00       5    87.9
 207    6:00   76.0    67    0.7   231      2.0   921.4    0.00      17    87.8
 207    6:10   76.3    67    1.9   236      3.3   921.3    0.00      22    87.8
 207    6:20   76.3    68    1.2   250      2.8   921.4    0.00      27    87.7
 207    6:30   76.0    69    1.2   250      3.0   921.4    0.00      34    87.6
 207    6:40   75.8    70    1.5   254      2.7   921.4    0.00      41    87.5
 207    6:50   76.0    70    1.4   246      3.2   921.5    0.00      50    87.5
 207    7:00   76.0    71    0.8   212      2.6   921.5    0.00      67    87.4
 207    7:10   76.3    70    1.8   242      3.4   921.6    0.00      89    87.3
 207    7:20   76.2    71    2.0   246      3.1   921.7    0.00     104    87.3
 207    7:30   76.2    71    1.8   246      3.4   921.8    0.00     126    87.2
 207    7:40   76.9    70    1.1   248      2.7   921.8    0.00     168    87.1
 207    7:50   77.2    68    1.9   249      3.1   921.8    0.00     198    87.1
 207    8:00   77.5    68    1.6   246      3.9   921.8    0.00     268    87.0
 207    8:10   78.3    66    2.3   266      4.5   921.8    0.00     538    86.9
 207    8:20   79.1    64    1.9   230      4.2   921.9    0.00     503    86.9
 207    8:30   79.4    61    1.9   240      3.8   921.9    0.00     312    86.8
 207    8:40   79.5    62    1.1   244      3.6   921.9    0.00     226    86.8
 207    8:50   80.1    61    1.4   202      2.9   922.0    0.00     325    86.8
 207    9:00   80.6    59    1.2   240      2.7   922.0    0.00     422    86.8
 207    9:10   81.9    57    1.5   204      3.6   921.9    0.00     480    86.7
 207    9:20   82.1    56    1.2   282      3.1   921.9    0.00     415    86.7
 207    9:30   81.9    57    0.7   325      3.9   921.9    0.00     365    86.7
 207    9:40   83.1    53    0.8    82      2.9   921.8    0.00     344    86.7
 207    9:50   83.1    53    1.1    86      4.1   921.8    0.00     663    86.7
 207   10:00   85.0    49    1.1   262      3.9   921.7    0.00     826    86.7
 207   10:10   85.4    50    1.8   179      6.1   921.7    0.00     806    86.6
 207   10:20   86.8    47    1.4   158      3.4   921.7    0.00     790    86.6
 207   10:30   86.3    47    1.5   263      4.7   921.7    0.00     783    86.7
 207   10:40   85.6    47    1.6   251      6.3   921.7    0.00     822    86.7
 207   10:50   85.2    47    2.2   253      5.2   921.6    0.00     831    86.6
 207   11:00   86.6    45    2.1   270      5.1   921.4    0.00     791    86.8
 207   11:10   86.3    44    2.2   257      5.8   921.4    0.00     896    87.0

Return to St. George (Bloomington Hills), Utah graphs page.


Western Regional Climate Center,wrcc@dri.edu